Collinwood, Tennessee
Current Conditions -  °F | °C
As of 3:15 PM on Sunday 23 Nov 2014 (Local Time) from KSNH Reporting Station
Broken Clouds Broken Clouds  
Wind Chill: 61°   Ceiling: 5000
Heat Index: 61°   Visibility: 10mi
Dew Point: 61°   Wind: 13mph
Humidity: 100%   Direction: 140°SE
Pressure: 29.37"   Gusts: NA
Location:  35.17°N, 87.74°W
Report Text: KSNH 232115Z AUTO 14011KT 10SM FEW024 SCT038 BKN050 16/16 A2937 RMK
Loading
Personal Weather Stations






























Interactive Weather Map New forecast layout! Learn more

10-Day Weather Forecast

Advertisements
Track Severe Weather on mobile